createdAt,value
2023-01-09T00:00:49.936Z,19.77
2023-01-09T00:03:17.026Z,19.63
2023-01-09T00:05:44.143Z,16.63
2023-01-09T00:08:11.186Z,22.77
2023-01-09T00:10:38.260Z,19.50
2023-01-09T00:13:05.214Z,16.45
2023-01-09T00:15:32.445Z,19.33
2023-01-09T00:17:59.548Z,23.83
2023-01-09T00:20:26.600Z,23.02
2023-01-09T00:22:53.668Z,23.85
2023-01-09T00:25:22.856Z,21.15
2023-01-09T00:27:49.920Z,22.45
2023-01-09T00:30:16.964Z,24.15
2023-01-09T00:32:44.063Z,20.73
2023-01-09T00:35:15.870Z,20.90
2023-01-09T00:37:43.153Z,22.25
2023-01-09T00:40:11.201Z,19.20
2023-01-09T00:42:38.432Z,15.98
2023-01-09T00:45:11.378Z,19.38
2023-01-09T00:47:48.864Z,21.95
2023-01-09T00:50:24.967Z,18.27
2023-01-09T00:52:54.786Z,20.67
2023-01-09T00:55:21.956Z,21.10
2023-01-09T00:57:49.414Z,24.52
2023-01-09T01:00:16.952Z,22.30
2023-01-09T01:02:44.070Z,22.83
2023-01-09T01:05:29.567Z,20.33
2023-01-09T01:07:56.591Z,21.17
2023-01-09T01:10:26.375Z,21.13
2023-01-09T01:12:54.050Z,20.00
2023-01-09T01:15:21.755Z,21.13
2023-01-09T01:17:49.300Z,21.75
2023-01-09T01:20:19.119Z,20.17
2023-01-09T01:22:47.113Z,22.92
2023-01-09T01:25:17.128Z,21.33
2023-01-09T01:27:45.247Z,19.85
2023-01-09T01:30:14.768Z,21.17
2023-01-09T01:32:42.588Z,19.85
2023-01-09T01:35:10.805Z,22.02
2023-01-09T01:37:38.909Z,22.70
2023-01-09T01:40:08.283Z,23.42
2023-01-09T01:42:35.345Z,24.40
2023-01-09T01:45:15.983Z,20.70
2023-01-09T01:47:51.044Z,23.00
2023-01-09T01:50:26.286Z,22.10
2023-01-09T01:53:02.743Z,21.40
2023-01-09T01:55:30.597Z,21.98
2023-01-09T01:58:03.100Z,20.48
2023-01-09T02:00:33.642Z,21.17
2023-01-09T02:03:02.226Z,23.77
2023-01-09T02:05:30.572Z,20.45
2023-01-09T02:07:57.602Z,19.23
2023-01-09T02:10:25.803Z,22.65
2023-01-09T02:12:52.932Z,29.23
2023-01-09T02:15:21.014Z,22.63
2023-01-09T02:18:38.566Z,22.17
2023-01-09T02:21:33.510Z,23.50
2023-01-09T02:24:22.971Z,22.77
2023-01-09T02:26:52.398Z,21.90
2023-01-09T02:29:46.072Z,26.00
2023-01-09T02:32:54.772Z,19.33
2023-01-09T02:36:00.421Z,17.88
2023-01-09T02:38:48.305Z,19.25
2023-01-09T02:41:22.926Z,18.45
2023-01-09T02:44:19.737Z,20.20
2023-01-09T02:46:46.812Z,20.85
2023-01-09T02:49:17.226Z,20.83
2023-01-09T02:52:02.092Z,16.75
2023-01-09T02:54:45.457Z,20.63
2023-01-09T02:57:50.747Z,23.88
2023-01-09T03:00:40.240Z,19.63
2023-01-09T03:03:23.090Z,21.63
2023-01-09T03:06:10.325Z,17.60
2023-01-09T03:08:45.618Z,17.88
2023-01-09T03:11:12.774Z,17.92
2023-01-09T03:13:54.892Z,19.40
2023-01-09T03:16:32.249Z,19.17
2023-01-09T03:19:00.847Z,16.35
2023-01-09T03:21:29.002Z,18.80
2023-01-09T03:24:01.350Z,19.45
2023-01-09T03:26:29.653Z,21.83
2023-01-09T03:28:56.777Z,16.60
2023-01-09T03:31:23.885Z,16.42
2023-01-09T03:33:51.370Z,19.98
2023-01-09T03:36:19.905Z,18.33
2023-01-09T03:38:46.978Z,18.42
2023-01-09T03:41:14.056Z,16.25
2023-01-09T03:43:41.155Z,16.95
2023-01-09T03:46:08.183Z,17.40
2023-01-09T03:48:35.277Z,17.35
2023-01-09T03:51:02.355Z,18.38
2023-01-09T03:53:29.532Z,17.35
2023-01-09T03:55:58.244Z,17.75
2023-01-09T03:58:26.292Z,16.00
2023-01-09T04:00:59.293Z,19.05
2023-01-09T04:03:26.975Z,20.15
2023-01-09T04:05:54.566Z,16.58
2023-01-09T04:08:22.102Z,17.48
2023-01-09T04:10:50.943Z,15.73
2023-01-09T04:13:18.700Z,17.98
2023-01-09T04:15:45.716Z,16.60
2023-01-09T04:18:13.465Z,17.30
2023-01-09T04:20:41.047Z,18.65
2023-01-09T04:23:08.620Z,19.08
2023-01-09T04:25:35.749Z,18.75
2023-01-09T04:28:02.823Z,17.33
2023-01-09T04:30:29.923Z,17.45
2023-01-09T04:32:57.053Z,14.85
2023-01-09T04:35:24.128Z,16.33
2023-01-09T04:37:51.121Z,15.45
2023-01-09T04:40:19.146Z,16.27
2023-01-09T04:42:46.758Z,18.05
2023-01-09T04:45:15.794Z,18.90
2023-01-09T04:47:42.983Z,17.63
2023-01-09T04:50:11.280Z,16.65
2023-01-09T04:52:39.181Z,14.32
2023-01-09T04:55:08.360Z,17.13
2023-01-09T04:57:36.688Z,13.73
2023-01-09T05:00:09.899Z,16.13
2023-01-09T05:02:37.669Z,16.77
2023-01-09T05:05:08.567Z,17.05
2023-01-09T05:07:37.782Z,15.80
2023-01-09T05:10:06.489Z,13.85
2023-01-09T05:12:35.243Z,18.55
2023-01-09T05:15:03.770Z,17.20
2023-01-09T05:17:30.831Z,16.73
2023-01-09T05:19:57.895Z,14.77
2023-01-09T05:22:24.892Z,15.45
2023-01-09T05:24:51.941Z,17.95
2023-01-09T05:27:19.008Z,16.80
2023-01-09T05:29:46.037Z,16.45
2023-01-09T05:32:13.072Z,20.48
2023-01-09T05:34:40.106Z,15.13
2023-01-09T05:37:07.178Z,23.13
2023-01-09T05:39:34.205Z,18.30
2023-01-09T05:42:01.237Z,14.60
2023-01-09T05:44:28.272Z,18.20
2023-01-09T05:46:55.242Z,15.70
2023-01-09T05:49:22.189Z,18.23
2023-01-09T05:51:49.228Z,20.70
2023-01-09T05:54:16.214Z,20.45
2023-01-09T05:56:43.245Z,20.67
2023-01-09T05:59:10.371Z,17.08
2023-01-09T06:01:37.475Z,17.95
2023-01-09T06:04:04.613Z,18.25
2023-01-09T06:06:31.617Z,18.23
2023-01-09T06:08:58.610Z,20.10
2023-01-09T06:11:25.676Z,19.98
2023-01-09T06:13:52.664Z,19.13
2023-01-09T06:16:19.867Z,16.10
2023-01-09T06:18:47.051Z,18.85
2023-01-09T06:21:14.138Z,18.98
2023-01-09T06:23:41.179Z,15.55
2023-01-09T06:26:08.240Z,18.17
2023-01-09T06:28:35.213Z,18.33
2023-01-09T06:31:02.398Z,20.38
2023-01-09T06:33:29.510Z,17.52
2023-01-09T06:35:56.536Z,16.80
2023-01-09T06:38:23.688Z,18.65
2023-01-09T06:40:50.976Z,19.70
2023-01-09T06:43:18.006Z,17.83
2023-01-09T06:45:45.166Z,15.45
2023-01-09T06:48:12.737Z,15.50
2023-01-09T06:50:39.798Z,22.05
2023-01-09T06:53:07.084Z,19.63
2023-01-09T06:55:34.210Z,20.27
2023-01-09T06:58:01.283Z,24.98
2023-01-09T07:00:28.364Z,19.70
2023-01-09T07:02:55.445Z,23.27
2023-01-09T07:05:22.492Z,20.27
2023-01-09T07:07:49.567Z,20.48
2023-01-09T07:10:16.706Z,21.15
2023-01-09T07:12:43.742Z,19.38
2023-01-09T07:15:11.196Z,23.10
2023-01-09T07:17:38.355Z,19.98
2023-01-09T07:20:06.059Z,22.25
2023-01-09T07:22:33.182Z,21.65
2023-01-09T07:25:00.216Z,25.27
2023-01-09T07:27:27.216Z,25.40
2023-01-09T07:29:54.286Z,23.15
2023-01-09T07:32:21.353Z,26.35
2023-01-09T07:34:49.579Z,24.25
2023-01-09T07:37:16.606Z,25.48
2023-01-09T07:39:44.182Z,29.05
2023-01-09T07:42:12.310Z,27.80
2023-01-09T07:44:39.348Z,23.67
2023-01-09T07:47:06.493Z,22.85
2023-01-09T07:49:33.710Z,24.50
2023-01-09T07:52:01.045Z,21.98
2023-01-09T07:54:28.234Z,26.50
2023-01-09T07:56:56.546Z,26.02
2023-01-09T07:59:23.603Z,22.45
2023-01-09T08:01:50.789Z,31.92
2023-01-09T08:04:17.938Z,32.05
2023-01-09T08:06:45.024Z,32.35
2023-01-09T08:09:12.315Z,26.23
2023-01-09T08:11:39.331Z,27.73
2023-01-09T08:14:06.337Z,28.10
2023-01-09T08:16:33.408Z,32.42
2023-01-09T08:19:00.532Z,34.05
2023-01-09T08:21:27.584Z,27.83
2023-01-09T08:23:54.613Z,27.33
2023-01-09T08:26:21.828Z,26.77
2023-01-09T08:28:50.273Z,29.25
2023-01-09T08:31:17.321Z,28.85
2023-01-09T08:33:44.352Z,25.63
2023-01-09T08:36:11.499Z,22.45
2023-01-09T08:38:38.621Z,25.35
2023-01-09T08:41:25.657Z,29.60
2023-01-09T08:44:11.216Z,29.33
2023-01-09T08:47:13.670Z,33.13
2023-01-09T08:49:40.691Z,24.02
2023-01-09T08:52:07.982Z,28.30
2023-01-09T08:54:39.020Z,30.33
2023-01-09T08:57:07.377Z,22.60
2023-01-09T08:59:34.912Z,24.85
2023-01-09T09:02:01.939Z,24.67
2023-01-09T09:04:29.029Z,30.60
2023-01-09T09:06:56.058Z,26.38
2023-01-09T09:09:23.215Z,22.92
2023-01-09T09:11:50.250Z,26.30
2023-01-09T09:14:36.048Z,27.58
2023-01-09T09:17:03.155Z,20.17
2023-01-09T09:19:30.172Z,25.83
2023-01-09T09:21:57.230Z,22.35
2023-01-09T09:24:24.274Z,24.67
2023-01-09T09:26:51.297Z,21.08
2023-01-09T09:29:18.416Z,23.92
2023-01-09T09:31:45.494Z,22.15
2023-01-09T09:34:13.448Z,22.75
2023-01-09T09:36:40.549Z,23.50
2023-01-09T09:39:09.172Z,23.80
2023-01-09T09:42:21.231Z,25.70
2023-01-09T09:45:03.342Z,26.80
2023-01-09T09:47:48.521Z,28.00
2023-01-09T09:50:51.643Z,23.17
2023-01-09T09:53:34.124Z,18.98
2023-01-09T09:56:02.767Z,19.15
2023-01-09T09:58:35.659Z,20.42
2023-01-09T10:01:04.025Z,21.17
2023-01-09T10:03:55.475Z,16.30
2023-01-09T10:06:42.378Z,17.70
2023-01-09T10:09:49.365Z,19.20
2023-01-09T10:12:28.201Z,17.58
2023-01-09T10:15:17.845Z,17.27
2023-01-09T10:18:08.204Z,12.38
2023-01-09T10:20:38.169Z,12.85
2023-01-09T10:23:23.134Z,15.70
2023-01-09T10:26:01.937Z,12.13
2023-01-09T10:28:59.890Z,13.10
2023-01-09T10:31:29.794Z,7.68
2023-01-09T10:34:15.467Z,15.35
2023-01-09T10:37:06.904Z,11.45
2023-01-09T10:39:39.418Z,7.28
2023-01-09T10:42:36.718Z,10.77
2023-01-09T10:45:19.433Z,7.80
2023-01-09T10:47:47.453Z,8.10
2023-01-09T10:50:23.984Z,11.93
2023-01-09T10:52:53.582Z,9.93
2023-01-09T10:55:29.289Z,8.07
2023-01-09T10:58:04.691Z,10.32
2023-01-09T11:00:31.725Z,10.20
2023-01-09T11:02:58.748Z,7.30
2023-01-09T11:05:31.161Z,9.25
2023-01-09T11:08:20.729Z,8.02
2023-01-09T11:10:56.101Z,8.48
2023-01-09T11:13:26.950Z,7.78
2023-01-09T11:16:11.517Z,7.35
2023-01-09T11:19:00.558Z,6.72
2023-01-09T11:21:36.045Z,6.30
2023-01-09T11:24:21.701Z,6.28
2023-01-09T11:26:53.810Z,5.00
2023-01-09T11:29:27.286Z,4.70
2023-01-09T11:31:58.258Z,3.63
2023-01-09T11:34:32.046Z,7.60
2023-01-09T11:37:12.080Z,4.00
2023-01-09T11:39:42.007Z,4.78
2023-01-09T11:42:42.261Z,5.10
2023-01-09T11:45:27.638Z,3.17
2023-01-09T11:47:54.698Z,3.78
2023-01-09T11:50:25.161Z,3.20
2023-01-09T11:53:13.357Z,3.55
2023-01-09T11:55:43.057Z,4.00
2023-01-09T11:58:22.041Z,3.63
2023-01-09T12:01:05.966Z,3.90
2023-01-09T12:03:51.837Z,4.50
2023-01-09T12:06:43.125Z,4.50
2023-01-09T12:09:20.416Z,4.03
2023-01-09T12:11:53.261Z,2.83
2023-01-09T12:14:41.160Z,5.05
2023-01-09T12:17:37.504Z,4.78
2023-01-09T12:20:27.994Z,3.60
2023-01-09T12:23:13.626Z,3.80
2023-01-09T12:26:11.097Z,4.32
2023-01-09T12:28:58.535Z,2.88
2023-01-09T12:32:05.706Z,2.70
2023-01-09T12:34:57.336Z,3.83
2023-01-09T12:37:45.742Z,2.20
2023-01-09T12:40:15.855Z,2.80
2023-01-09T12:42:58.045Z,2.70
2023-01-09T12:45:55.822Z,2.90
2023-01-09T12:49:16.598Z,2.10
2023-01-09T12:52:05.955Z,1.77
2023-01-09T12:54:51.882Z,3.15
2023-01-09T12:57:39.406Z,2.10
2023-01-09T13:00:15.257Z,2.15
2023-01-09T13:02:57.576Z,2.13
2023-01-09T13:05:40.496Z,2.20
2023-01-09T13:08:15.962Z,2.10
2023-01-09T13:10:48.339Z,2.67
2023-01-09T13:13:39.251Z,3.95
2023-01-09T13:16:12.354Z,2.00
2023-01-09T13:18:51.531Z,2.38
2023-01-09T13:21:19.722Z,3.78
2023-01-09T13:24:05.870Z,2.58
2023-01-09T13:26:48.023Z,2.03
2023-01-09T13:29:18.570Z,2.50
2023-01-09T13:32:18.315Z,4.30
2023-01-09T13:34:52.786Z,2.20
2023-01-09T13:37:51.469Z,2.10
2023-01-09T13:40:21.454Z,2.35
2023-01-09T13:43:09.892Z,1.95
2023-01-09T13:45:39.848Z,2.17
2023-01-09T13:48:17.965Z,3.53
2023-01-09T13:50:51.099Z,4.78
2023-01-09T13:53:18.178Z,2.15
2023-01-09T13:55:57.864Z,2.72
2023-01-09T13:58:27.775Z,5.07
2023-01-09T14:00:58.047Z,5.18
2023-01-09T14:03:38.298Z,5.82
2023-01-09T14:06:14.459Z,2.42
2023-01-09T14:08:42.829Z,3.25
2023-01-09T14:11:17.463Z,2.63
2023-01-09T14:13:46.575Z,2.35
2023-01-09T14:16:20.807Z,5.63
2023-01-09T14:18:52.538Z,2.80
2023-01-09T14:21:20.666Z,4.25
2023-01-09T14:24:02.934Z,4.70
2023-01-09T14:26:54.020Z,5.32
2023-01-09T14:29:29.567Z,2.60
2023-01-09T14:32:21.424Z,2.63
2023-01-09T14:34:53.964Z,2.95
2023-01-09T14:37:21.936Z,2.60
2023-01-09T14:39:51.402Z,2.60
2023-01-09T14:42:26.377Z,2.70
2023-01-09T14:45:25.185Z,2.60
2023-01-09T14:48:04.796Z,3.08
2023-01-09T14:50:45.153Z,4.25
2023-01-09T14:53:22.476Z,2.88
2023-01-09T14:55:58.212Z,3.33
2023-01-09T14:58:29.514Z,2.60
2023-01-09T15:01:08.836Z,2.45
2023-01-09T15:03:46.127Z,3.03
2023-01-09T15:06:18.275Z,3.10
2023-01-09T15:08:47.745Z,2.78
2023-01-09T15:11:15.033Z,2.78
2023-01-09T15:13:49.175Z,3.45
2023-01-09T15:16:24.760Z,4.18
2023-01-09T15:18:57.051Z,4.38
2023-01-09T15:21:25.841Z,2.78
2023-01-09T15:23:53.747Z,3.97
2023-01-09T15:26:31.015Z,3.05
2023-01-09T15:29:05.244Z,3.72
2023-01-09T15:31:32.605Z,2.72
2023-01-09T15:33:59.638Z,3.92
2023-01-09T15:36:30.965Z,3.22
2023-01-09T15:38:59.905Z,3.53
2023-01-09T15:41:47.788Z,4.35
2023-01-09T15:44:26.967Z,4.13
2023-01-09T15:46:59.955Z,3.95
2023-01-09T15:49:27.396Z,11.27
2023-01-09T15:51:55.206Z,4.82
2023-01-09T15:54:31.284Z,5.53
2023-01-09T15:57:26.451Z,5.43
2023-01-09T15:59:55.016Z,5.60
2023-01-09T16:02:43.305Z,3.97
2023-01-09T16:05:20.166Z,3.67
2023-01-09T16:07:49.509Z,3.05
2023-01-09T16:10:30.844Z,3.20
2023-01-09T16:12:58.234Z,3.28
2023-01-09T16:15:25.922Z,4.05
2023-01-09T16:18:22.590Z,4.20
2023-01-09T16:20:51.446Z,3.47
2023-01-09T16:23:29.203Z,3.10
2023-01-09T16:26:12.568Z,3.13
2023-01-09T16:28:43.200Z,2.70
2023-01-09T16:31:31.259Z,3.38
2023-01-09T16:34:06.998Z,5.90
2023-01-09T16:36:35.380Z,3.75
2023-01-09T16:39:04.241Z,2.50
2023-01-09T16:41:50.088Z,2.80
2023-01-09T16:44:19.402Z,2.60
2023-01-09T16:46:46.830Z,2.92
2023-01-09T16:49:19.394Z,2.80
2023-01-09T16:51:47.979Z,3.67
2023-01-09T16:54:15.808Z,2.33
2023-01-09T16:56:48.536Z,2.20
2023-01-09T16:59:27.041Z,3.08
2023-01-09T17:01:55.150Z,4.10
2023-01-09T17:04:23.955Z,2.70
2023-01-09T17:06:51.667Z,2.45
2023-01-09T17:09:22.320Z,2.83
2023-01-09T17:11:49.352Z,2.85
2023-01-09T17:14:16.408Z,2.35
2023-01-09T17:16:46.103Z,2.83
2023-01-09T17:19:19.281Z,3.28
2023-01-09T17:21:46.829Z,3.28
2023-01-09T17:24:32.409Z,2.10
2023-01-09T17:27:19.857Z,1.88
2023-01-09T17:29:47.303Z,2.15
2023-01-09T17:32:16.037Z,2.50
2023-01-09T17:34:43.576Z,6.53
2023-01-09T17:37:16.210Z,3.75
2023-01-09T17:39:43.931Z,4.07
2023-01-09T17:42:11.172Z,5.20
2023-01-09T17:44:38.332Z,2.80
2023-01-09T17:47:06.299Z,2.50
2023-01-09T17:49:33.412Z,2.95
2023-01-09T17:52:00.483Z,2.88
2023-01-09T17:54:27.694Z,2.45
2023-01-09T17:56:54.839Z,2.80
2023-01-09T17:59:22.083Z,2.33
2023-01-09T18:01:49.238Z,4.05
2023-01-09T18:04:16.487Z,4.22
2023-01-09T18:06:43.585Z,2.72
2023-01-09T18:09:17.395Z,3.08
2023-01-09T18:11:45.418Z,2.42
2023-01-09T18:14:13.966Z,3.35
2023-01-09T18:16:41.406Z,4.32
2023-01-09T18:19:09.457Z,3.25
2023-01-09T18:21:36.453Z,4.57
2023-01-09T18:24:03.981Z,4.43
2023-01-09T18:26:31.339Z,5.13
2023-01-09T18:29:01.292Z,4.93
2023-01-09T18:31:30.896Z,5.47
2023-01-09T18:34:02.616Z,6.38
2023-01-09T18:36:30.933Z,5.55
2023-01-09T18:39:03.684Z,6.00
2023-01-09T18:41:34.524Z,7.03
2023-01-09T18:44:02.837Z,5.38
2023-01-09T18:46:33.167Z,4.93
2023-01-09T18:49:02.496Z,7.05
2023-01-09T18:51:31.072Z,5.93
2023-01-09T18:53:58.948Z,7.90
2023-01-09T18:56:26.394Z,7.07
2023-01-09T18:58:57.961Z,5.30
2023-01-09T19:01:30.048Z,7.32
2023-01-09T19:04:00.422Z,4.55
2023-01-09T19:06:32.483Z,7.97
2023-01-09T19:09:01.354Z,6.03
2023-01-09T19:11:28.678Z,5.68
2023-01-09T19:13:57.002Z,6.35
2023-01-09T19:16:24.685Z,7.22
2023-01-09T19:18:53.860Z,6.32
2023-01-09T19:21:23.874Z,5.38
2023-01-09T19:23:51.431Z,9.48
2023-01-09T19:26:25.289Z,8.48
2023-01-09T19:28:58.125Z,9.00
2023-01-09T19:31:28.832Z,6.55
2023-01-09T19:33:57.598Z,6.20
2023-01-09T19:36:25.391Z,6.68
2023-01-09T19:38:59.969Z,7.13
2023-01-09T19:41:27.703Z,6.40
2023-01-09T19:43:55.699Z,6.28
2023-01-09T19:46:25.277Z,9.02
2023-01-09T19:48:53.660Z,7.35
2023-01-09T19:51:22.960Z,11.00
2023-01-09T19:53:55.653Z,13.52
2023-01-09T19:56:25.559Z,14.48
2023-01-09T19:58:55.971Z,8.32
2023-01-09T20:01:26.950Z,5.68
2023-01-09T20:03:56.896Z,7.25
2023-01-09T20:06:27.634Z,6.65
2023-01-09T20:08:57.116Z,8.20
2023-01-09T20:11:27.240Z,8.15
2023-01-09T20:13:57.921Z,7.25
2023-01-09T20:16:31.019Z,6.88
2023-01-09T20:19:00.801Z,9.80
2023-01-09T20:21:29.505Z,8.23
2023-01-09T20:24:00.327Z,7.07
2023-01-09T20:26:28.863Z,7.40
2023-01-09T20:28:57.059Z,7.85
2023-01-09T20:31:28.403Z,9.52
2023-01-09T20:33:55.620Z,14.27
2023-01-09T20:36:27.660Z,17.55
2023-01-09T20:38:55.508Z,14.88
2023-01-09T20:41:23.852Z,9.32
2023-01-09T20:43:59.251Z,8.45
2023-01-09T20:46:29.544Z,7.95
2023-01-09T20:48:59.076Z,6.57
2023-01-09T20:51:26.989Z,7.85
2023-01-09T20:53:58.660Z,7.80
2023-01-09T20:56:30.763Z,7.75
2023-01-09T20:59:00.254Z,13.27
2023-01-09T21:01:28.420Z,6.47
2023-01-09T21:03:56.973Z,9.52
2023-01-09T21:06:26.056Z,9.38
2023-01-09T21:08:53.410Z,6.25
2023-01-09T21:11:21.985Z,7.93
2023-01-09T21:13:49.697Z,7.30
2023-01-09T21:16:21.518Z,6.03
2023-01-09T21:18:49.358Z,8.63
2023-01-09T21:21:22.731Z,8.23
2023-01-09T21:23:53.379Z,6.25
2023-01-09T21:26:23.189Z,7.10
2023-01-09T21:28:55.457Z,4.80
2023-01-09T21:31:28.931Z,7.32
2023-01-09T21:33:56.067Z,4.90
2023-01-09T21:36:23.411Z,5.55
2023-01-09T21:38:53.573Z,4.38
2023-01-09T21:41:40.389Z,5.15
2023-01-09T21:44:32.740Z,4.10
2023-01-09T21:47:02.130Z,7.55
2023-01-09T21:49:31.489Z,4.28
2023-01-09T21:51:58.957Z,9.40
2023-01-09T21:54:26.385Z,8.73
2023-01-09T21:56:54.792Z,7.40
2023-01-09T21:59:21.949Z,6.95
2023-01-09T22:01:50.767Z,8.35
2023-01-09T22:04:21.224Z,6.90
2023-01-09T22:06:48.545Z,12.63
2023-01-09T22:09:16.491Z,9.18
2023-01-09T22:11:44.194Z,7.28
2023-01-09T22:14:16.142Z,8.93
2023-01-09T22:16:44.194Z,5.55
2023-01-09T22:19:18.102Z,3.60
2023-01-09T22:21:45.610Z,5.85
2023-01-09T22:24:18.031Z,3.33
2023-01-09T22:26:45.505Z,3.90
2023-01-09T22:29:12.640Z,4.97
2023-01-09T22:31:40.853Z,4.43
2023-01-09T22:34:11.262Z,3.42
2023-01-09T22:36:39.049Z,2.95
2023-01-09T22:39:06.219Z,2.50
2023-01-09T22:41:34.096Z,3.90
2023-01-09T22:44:01.176Z,2.90
2023-01-09T22:46:28.201Z,2.40
2023-01-09T22:48:55.220Z,2.83
2023-01-09T22:51:22.982Z,2.10
2023-01-09T22:53:51.142Z,2.30
2023-01-09T22:56:20.867Z,3.85
2023-01-09T22:58:52.578Z,2.25
2023-01-09T23:01:20.730Z,2.92
2023-01-09T23:03:47.886Z,4.68
2023-01-09T23:06:17.527Z,2.40
2023-01-09T23:08:46.317Z,4.25
2023-01-09T23:11:38.405Z,1.63
2023-01-09T23:14:05.456Z,2.17
2023-01-09T23:16:32.494Z,1.75
2023-01-09T23:18:59.643Z,2.20
2023-01-09T23:21:26.862Z,2.90
2023-01-09T23:23:53.928Z,2.00
2023-01-09T23:26:20.893Z,2.63
2023-01-09T23:28:47.900Z,2.70
2023-01-09T23:31:15.759Z,1.40
2023-01-09T23:33:42.810Z,1.70
2023-01-09T23:36:10.370Z,3.33
2023-01-09T23:38:39.149Z,2.47
2023-01-09T23:41:07.436Z,4.20
2023-01-09T23:43:34.456Z,1.42
2023-01-09T23:46:01.826Z,2.47
2023-01-09T23:48:28.965Z,2.42
2023-01-09T23:50:55.992Z,1.63
2023-01-09T23:53:23.813Z,3.35
2023-01-09T23:55:55.405Z,1.85
2023-01-09T23:58:22.663Z,2.30
